createdAt,value
2017-02-23T00:00:05.939Z,39.8
2017-02-23T00:02:05.741Z,39.8
2017-02-23T00:04:05.652Z,39.8
2017-02-23T00:06:05.971Z,39.8
2017-02-23T00:08:05.678Z,39.7
2017-02-23T00:10:05.659Z,39.8
2017-02-23T00:12:05.494Z,39.8
2017-02-23T00:14:05.161Z,39.7
2017-02-23T00:16:06.002Z,39.7
2017-02-23T00:18:05.956Z,39.6
2017-02-23T00:20:05.709Z,39.7
2017-02-23T00:22:08.660Z,39.6
2017-02-23T00:24:05.388Z,39.6
2017-02-23T00:26:07.643Z,39.6
2017-02-23T00:28:05.690Z,39.6
2017-02-23T00:30:05.437Z,39.6
2017-02-23T00:32:05.256Z,39.6
2017-02-23T00:34:06.657Z,39.5
2017-02-23T00:36:05.400Z,39.6
2017-02-23T00:38:05.430Z,39.6
2017-02-23T00:40:07.796Z,39.5
2017-02-23T00:42:05.479Z,39.5
2017-02-23T00:44:05.293Z,39.5
2017-02-23T00:46:05.455Z,39.5
2017-02-23T00:48:05.170Z,39.5
2017-02-23T00:50:05.905Z,39.5
2017-02-23T00:52:08.387Z,39.5
2017-02-23T00:54:05.117Z,39.5
2017-02-23T00:56:10.881Z,39.4
2017-02-23T00:58:05.944Z,39.4
2017-02-23T01:00:08.480Z,39.4
2017-02-23T01:02:05.289Z,39.4
2017-02-23T01:04:10.330Z,39.3
2017-02-23T01:06:05.145Z,39.3
2017-02-23T01:08:08.359Z,39.3
2017-02-23T01:10:05.448Z,39.3
2017-02-23T01:12:05.205Z,39.3
2017-02-23T01:14:06.034Z,39.3
2017-02-23T01:16:06.106Z,39.3
2017-02-23T01:18:05.062Z,39.3
2017-02-23T01:20:08.437Z,39.3
2017-02-23T01:22:05.300Z,39.3
2017-02-23T01:24:07.636Z,39.2
2017-02-23T01:26:12.376Z,39.4
2017-02-23T01:28:05.427Z,39.2
2017-02-23T01:30:05.157Z,39.2
2017-02-23T01:32:06.168Z,39.2
2017-02-23T01:34:06.157Z,39.2
2017-02-23T01:36:05.955Z,39.1
2017-02-23T01:38:05.160Z,39.2
2017-02-23T01:40:08.717Z,39.1
2017-02-23T01:42:06.038Z,39.1
2017-02-23T01:44:05.781Z,39.1
2017-02-23T01:46:08.207Z,39.1
2017-02-23T01:48:06.254Z,39
2017-02-23T01:50:08.518Z,39.1
2017-02-23T01:52:06.275Z,38.9
2017-02-23T01:54:05.976Z,39.1
2017-02-23T01:56:05.722Z,39.1
2017-02-23T01:58:05.840Z,38.8
2017-02-23T02:00:05.543Z,38.8
2017-02-23T02:02:08.340Z,38.8
2017-02-23T02:04:05.465Z,38.8
2017-02-23T02:06:05.261Z,38.8
2017-02-23T02:08:08.533Z,39
2017-02-23T02:10:05.664Z,39
2017-02-23T02:12:05.343Z,38.8
2017-02-23T02:14:05.134Z,38.7
2017-02-23T02:16:05.974Z,38.7
2017-02-23T02:18:05.914Z,38.7
2017-02-23T02:20:05.937Z,38.7
2017-02-23T02:22:05.989Z,38.8
2017-02-23T02:24:05.732Z,38.7
2017-02-23T02:26:08.062Z,38.7
2017-02-23T02:28:06.081Z,38.7
2017-02-23T02:30:05.820Z,38.9
2017-02-23T02:32:07.591Z,38.9
2017-02-23T02:34:15.768Z,38.6
2017-02-23T02:36:05.629Z,38.9
2017-02-23T02:38:05.369Z,38.9
2017-02-23T02:40:05.688Z,38.8
2017-02-23T02:42:05.519Z,38.6
2017-02-23T02:44:05.250Z,38.6
2017-02-23T02:46:08.932Z,38.8
2017-02-23T02:48:05.690Z,38.8
2017-02-23T02:50:05.406Z,38.6
2017-02-23T02:52:10.579Z,38.8
2017-02-23T02:54:05.323Z,38.5
2017-02-23T02:56:05.060Z,38.8
2017-02-23T02:58:05.387Z,38.8
2017-02-23T03:00:05.145Z,38.8
2017-02-23T03:02:05.903Z,38.8
2017-02-23T03:04:11.098Z,38.5
2017-02-23T03:06:05.874Z,38.7
2017-02-23T03:08:05.553Z,38.8
2017-02-23T03:10:05.959Z,38.7
2017-02-23T03:12:08.234Z,38.7
2017-02-23T03:14:05.986Z,38.5
2017-02-23T03:16:06.059Z,38.7
2017-02-23T03:18:08.496Z,38.7
2017-02-23T03:20:07.800Z,38.7
2017-02-23T03:22:08.128Z,38.6
2017-02-23T03:24:05.660Z,38.6
2017-02-23T03:26:05.381Z,38.6
2017-02-23T03:28:10.630Z,38.6
2017-02-23T03:30:05.344Z,38.3
2017-02-23T03:32:07.583Z,38.4
2017-02-23T03:34:05.431Z,38.6
2017-02-23T03:36:08.303Z,38.6
2017-02-23T03:38:05.033Z,38.4
2017-02-23T03:40:06.059Z,38.6
2017-02-23T03:42:07.175Z,38.3
2017-02-23T03:44:10.467Z,38.6
2017-02-23T03:46:13.673Z,38.5
2017-02-23T03:48:05.335Z,38.5
2017-02-23T03:50:05.091Z,38.5
2017-02-23T03:52:06.255Z,38.5
2017-02-23T03:54:08.513Z,38.4
2017-02-23T03:56:06.049Z,38.5
2017-02-23T03:58:05.864Z,38.4
2017-02-23T04:00:08.120Z,38.4
2017-02-23T04:02:08.395Z,38.4
2017-02-23T04:04:05.387Z,38.4
2017-02-23T04:06:05.234Z,38.4
2017-02-23T04:08:05.990Z,38.4
2017-02-23T04:10:05.995Z,38.4
2017-02-23T04:12:05.972Z,38.4
2017-02-23T04:14:08.207Z,38.4
2017-02-23T04:16:06.204Z,38.4
2017-02-23T04:18:05.165Z,38.4
2017-02-23T04:20:08.516Z,38.3
2017-02-23T04:22:05.387Z,38.1
2017-02-23T04:24:05.088Z,38.4
2017-02-23T04:26:05.850Z,38.3
2017-02-23T04:28:08.353Z,38.3
2017-02-23T04:30:05.041Z,38
2017-02-23T04:32:05.753Z,38.2
2017-02-23T04:34:05.874Z,38
2017-02-23T04:36:10.662Z,38.2
2017-02-23T04:38:07.935Z,38.2
2017-02-23T04:40:11.125Z,37.7
2017-02-23T04:42:05.839Z,37.7
2017-02-23T04:44:05.848Z,37.9
2017-02-23T04:46:05.481Z,37.9
2017-02-23T04:48:07.762Z,37.7
2017-02-23T04:50:05.086Z,37.7
2017-02-23T04:52:13.540Z,37.7
2017-02-23T04:54:07.821Z,37.7
2017-02-23T04:56:10.599Z,37.5
2017-02-23T04:58:05.589Z,37.5
2017-02-23T05:00:06.036Z,37.5
2017-02-23T05:02:05.744Z,37.5
2017-02-23T05:04:05.606Z,37.5
2017-02-23T05:06:05.546Z,37.3
2017-02-23T05:08:05.359Z,37.3
2017-02-23T05:10:05.320Z,37.3
2017-02-23T05:12:05.144Z,37.3
2017-02-23T05:14:05.879Z,37.3
2017-02-23T05:16:05.983Z,37
2017-02-23T05:18:08.456Z,37
2017-02-23T05:20:06.409Z,37
2017-02-23T05:22:05.349Z,37.3
2017-02-23T05:24:05.137Z,37.1
2017-02-23T05:26:05.281Z,37
2017-02-23T05:28:06.329Z,37
2017-02-23T05:30:07.620Z,37
2017-02-23T05:32:05.723Z,37
2017-02-23T05:34:05.767Z,37
2017-02-23T05:36:08.017Z,37
2017-02-23T05:38:05.755Z,37
2017-02-23T05:40:05.837Z,37
2017-02-23T05:42:05.616Z,37
2017-02-23T05:44:08.019Z,37
2017-02-23T05:46:05.615Z,36.8
2017-02-23T05:48:06.042Z,37
2017-02-23T05:50:05.366Z,36.8
2017-02-23T05:52:05.241Z,36.8
2017-02-23T05:54:06.003Z,36.8
2017-02-23T05:56:05.762Z,36.8
2017-02-23T05:58:05.632Z,36.8
2017-02-23T06:00:05.367Z,36.8
2017-02-23T06:02:07.718Z,36.6
2017-02-23T06:04:06.257Z,36.6
2017-02-23T06:06:08.550Z,36.8
2017-02-23T06:08:05.346Z,36.6
2017-02-23T06:10:05.196Z,36.8
2017-02-23T06:12:06.020Z,36.6
2017-02-23T06:14:10.932Z,36.6
2017-02-23T06:16:06.399Z,36.6
2017-02-23T06:18:05.418Z,36.6
2017-02-23T06:20:05.635Z,36.6
2017-02-23T06:22:05.539Z,36.6
2017-02-23T06:24:05.276Z,36.6
2017-02-23T06:26:05.012Z,36.6
2017-02-23T06:28:06.076Z,36.6
2017-02-23T06:30:05.292Z,36.6
2017-02-23T06:32:05.529Z,36.6
2017-02-23T06:34:05.491Z,36.3
2017-02-23T06:36:08.021Z,36.6
2017-02-23T06:38:08.311Z,36.6
2017-02-23T06:40:05.316Z,36.6
2017-02-23T06:42:07.635Z,36.6
2017-02-23T06:44:05.435Z,36.6
2017-02-23T06:46:05.879Z,36.6
2017-02-23T06:48:05.601Z,36.6
2017-02-23T06:50:08.395Z,36.6
2017-02-23T06:52:05.445Z,36.6
2017-02-23T06:54:05.226Z,36.6
2017-02-23T06:56:06.020Z,36.3
2017-02-23T06:58:05.837Z,36.6
2017-02-23T07:00:08.092Z,36.6
2017-02-23T07:02:05.899Z,36.6
2017-02-23T07:04:08.031Z,36.6
2017-02-23T07:06:05.728Z,36.6
2017-02-23T07:08:05.914Z,36.6
2017-02-23T07:10:08.516Z,36.6
2017-02-23T07:12:05.229Z,36.6
2017-02-23T07:14:05.554Z,36.6
2017-02-23T07:16:05.392Z,36.6
2017-02-23T07:18:05.361Z,36.6
2017-02-23T07:20:05.048Z,36.6
2017-02-23T07:22:05.939Z,36.6
2017-02-23T07:24:08.358Z,36.6
2017-02-23T07:26:05.093Z,36.6
2017-02-23T07:28:06.088Z,36.6
2017-02-23T07:30:05.803Z,36.6
2017-02-23T07:32:05.483Z,36.6
2017-02-23T07:34:06.253Z,36.6
2017-02-23T07:36:06.427Z,36.6
2017-02-23T07:38:05.158Z,36.6
2017-02-23T07:40:08.706Z,36.6
2017-02-23T07:42:05.431Z,36.6
2017-02-23T07:44:05.156Z,36.6
2017-02-23T07:46:06.021Z,36.6
2017-02-23T07:48:05.280Z,36.6
2017-02-23T07:50:07.607Z,36.5
2017-02-23T07:52:05.577Z,36.6
2017-02-23T07:54:05.843Z,36.6
2017-02-23T07:56:09.413Z,36.6
2017-02-23T07:58:05.979Z,36.6
2017-02-23T08:00:05.815Z,36.6
2017-02-23T08:02:08.104Z,36.6
2017-02-23T08:04:05.921Z,36.6
2017-02-23T08:06:05.651Z,36.6
2017-02-23T08:08:06.115Z,36.6
2017-02-23T08:10:06.119Z,36.6
2017-02-23T08:12:05.941Z,36.6
2017-02-23T08:14:10.758Z,36.6
2017-02-23T08:16:05.567Z,36.6
2017-02-23T08:18:05.438Z,36.6
2017-02-23T08:20:05.122Z,36.6
2017-02-23T08:22:06.608Z,36.6
2017-02-23T08:24:05.333Z,36.6
2017-02-23T08:26:05.054Z,36.6
2017-02-23T08:28:06.099Z,36.6
2017-02-23T08:30:05.838Z,36.8
2017-02-23T08:32:10.634Z,36.8
2017-02-23T08:34:07.010Z,36.8
2017-02-23T08:36:05.775Z,36.8
2017-02-23T08:38:06.024Z,36.8
2017-02-23T08:40:05.813Z,36.8
2017-02-23T08:42:05.503Z,36.8
2017-02-23T08:44:10.404Z,36.8
2017-02-23T08:46:05.331Z,37
2017-02-23T08:48:05.117Z,37
2017-02-23T08:50:05.841Z,37
2017-02-23T08:52:06.298Z,37
2017-02-23T08:54:05.024Z,37
2017-02-23T08:56:05.834Z,37
2017-02-23T08:58:12.715Z,37
2017-02-23T09:00:08.982Z,37
2017-02-23T09:02:10.761Z,37
2017-02-23T09:04:13.580Z,37
2017-02-23T09:06:10.398Z,37.3
2017-02-23T09:08:05.174Z,37.3
2017-02-23T09:10:06.236Z,37.3
2017-02-23T09:12:05.992Z,37.3
2017-02-23T09:14:06.041Z,37.3
2017-02-23T09:16:05.918Z,37.3
2017-02-23T09:18:05.895Z,37.3
2017-02-23T09:20:05.615Z,37.3
2017-02-23T09:22:05.537Z,37.3
2017-02-23T09:24:05.347Z,37.5
2017-02-23T09:26:05.139Z,37.5
2017-02-23T09:28:05.487Z,37.7
2017-02-23T09:30:05.179Z,37.7
2017-02-23T09:32:06.437Z,37.7
2017-02-23T09:34:05.519Z,37.5
2017-02-23T09:36:05.450Z,37.5
2017-02-23T09:38:07.927Z,37.5
2017-02-23T09:40:05.908Z,37.5
2017-02-23T09:42:05.690Z,37.5
2017-02-23T09:44:05.456Z,37.5
2017-02-23T09:46:05.459Z,37.5
2017-02-23T09:48:05.792Z,37.5
2017-02-23T09:50:08.070Z,37.5
2017-02-23T09:52:08.530Z,37.5
2017-02-23T09:54:07.891Z,37.5
2017-02-23T09:56:08.224Z,37.5
2017-02-23T09:58:16.237Z,37.5
2017-02-23T10:00:05.980Z,37.5
2017-02-23T10:02:05.698Z,37.5
2017-02-23T10:04:05.858Z,37.5
2017-02-23T10:06:05.527Z,37.5
2017-02-23T10:08:05.291Z,37.5
2017-02-23T10:10:08.237Z,37.5
2017-02-23T10:12:05.936Z,37.5
2017-02-23T10:14:08.244Z,37.5
2017-02-23T10:16:16.509Z,37.5
2017-02-23T10:18:05.512Z,37.5
2017-02-23T10:20:05.594Z,37.5
2017-02-23T10:22:06.195Z,37.7
2017-02-23T10:24:06.082Z,37.4
2017-02-23T10:26:05.826Z,37.5
2017-02-23T10:28:06.540Z,37.5
2017-02-23T10:30:07.814Z,37.1
2017-02-23T10:32:10.799Z,37.1
2017-02-23T10:34:05.174Z,37.1
2017-02-23T10:36:06.091Z,37.3
2017-02-23T10:38:05.822Z,37.1
2017-02-23T10:40:05.898Z,37.1
2017-02-23T10:42:05.642Z,37
2017-02-23T10:44:07.922Z,37
2017-02-23T10:46:05.504Z,36.9
2017-02-23T10:48:05.227Z,37
2017-02-23T10:50:13.570Z,36.9
2017-02-23T10:52:08.001Z,37
2017-02-23T10:54:05.747Z,36.9
2017-02-23T10:56:05.497Z,37
2017-02-23T10:58:10.524Z,36.9
2017-02-23T11:00:05.252Z,36.9
2017-02-23T11:02:05.500Z,37.1
2017-02-23T11:04:07.886Z,36.8
2017-02-23T11:06:05.184Z,37.1
2017-02-23T11:08:06.286Z,36.8
2017-02-23T11:10:05.525Z,36.8
2017-02-23T11:12:07.840Z,37
2017-02-23T11:14:05.712Z,37
2017-02-23T11:16:06.984Z,37
2017-02-23T11:18:11.789Z,37.2
2017-02-23T11:20:05.133Z,37.2
2017-02-23T11:22:08.658Z,37.6
2017-02-23T11:24:05.762Z,37.6
2017-02-23T11:26:08.307Z,37.7
2017-02-23T11:28:05.207Z,37.7
2017-02-23T11:30:06.184Z,37.7
2017-02-23T11:32:06.004Z,37.7
2017-02-23T11:34:06.074Z,37.7
2017-02-23T11:36:05.805Z,37.5
2017-02-23T11:38:08.075Z,37.7
2017-02-23T11:40:06.170Z,37.7
2017-02-23T11:42:05.862Z,37.7
2017-02-23T11:44:05.612Z,37.7
2017-02-23T11:46:05.632Z,37.7
2017-02-23T11:48:05.303Z,37.5
2017-02-23T11:50:04.990Z,37.5
2017-02-23T11:52:05.982Z,37.7
2017-02-23T11:54:05.746Z,37.7
2017-02-23T11:56:05.871Z,37.5
2017-02-23T11:59:13.388Z,38
2017-02-23T12:02:05.173Z,37.8
2017-02-23T12:04:06.056Z,38.1
2017-02-23T12:06:06.799Z,38.2
2017-02-23T12:08:13.505Z,38.2
2017-02-23T12:10:08.131Z,38.1
2017-02-23T12:12:05.670Z,38.1
2017-02-23T12:14:07.905Z,38.1
2017-02-23T12:16:05.817Z,38.1
2017-02-23T12:18:10.839Z,38.3
2017-02-23T12:20:08.076Z,38.3
2017-02-23T12:22:08.730Z,38.4
2017-02-23T12:24:05.500Z,38.4
2017-02-23T12:26:05.228Z,38.5
2017-02-23T12:28:06.740Z,38.5
2017-02-23T12:30:05.509Z,38.6
2017-02-23T12:32:07.891Z,38.9
2017-02-23T12:34:08.280Z,38.8
2017-02-23T12:36:05.977Z,38.6
2017-02-23T12:38:13.328Z,38.8
2017-02-23T12:40:07.960Z,38.9
2017-02-23T12:42:05.734Z,38.9
2017-02-23T12:44:05.639Z,38.9
2017-02-23T12:46:05.569Z,39
2017-02-23T12:48:05.334Z,39
2017-02-23T12:50:05.661Z,39.1
2017-02-23T12:52:05.641Z,39
2017-02-23T12:54:05.929Z,39.1
2017-02-23T12:56:08.183Z,39.1
2017-02-23T12:58:11.151Z,39.1
2017-02-23T13:00:06.049Z,39.1
2017-02-23T13:02:05.359Z,39.2
2017-02-23T13:04:05.386Z,39.2
2017-02-23T13:06:05.142Z,39.1
2017-02-23T13:08:05.076Z,39.2
2017-02-23T13:10:05.393Z,39.2
2017-02-23T13:12:05.357Z,39.2
2017-02-23T13:14:05.080Z,39.3
2017-02-23T13:16:06.042Z,39.2
2017-02-23T13:18:08.584Z,39.4
2017-02-23T13:20:05.352Z,39.4
2017-02-23T13:22:08.335Z,39.2
2017-02-23T13:24:05.116Z,39.2
2017-02-23T13:26:05.957Z,39.5
2017-02-23T13:28:07.000Z,39.4
2017-02-23T13:30:05.287Z,39.3
2017-02-23T13:32:07.806Z,39.3
2017-02-23T13:34:11.957Z,39.4
2017-02-23T13:36:06.464Z,39.5
2017-02-23T13:38:05.171Z,39.4
2017-02-23T13:40:09.233Z,39.5
2017-02-23T13:42:05.327Z,39.4
2017-02-23T13:44:05.760Z,39.5
2017-02-23T13:46:05.883Z,39.4
2017-02-23T13:48:05.297Z,39.3
2017-02-23T13:50:05.042Z,39.3
2017-02-23T13:52:06.353Z,39.3
2017-02-23T13:54:05.649Z,39.4
2017-02-23T13:56:05.362Z,39.4
2017-02-23T13:58:05.483Z,39.1
2017-02-23T14:00:05.303Z,39.2
2017-02-23T14:02:05.578Z,39.1
2017-02-23T14:04:10.368Z,38.9
2017-02-23T14:06:05.120Z,39
2017-02-23T14:08:05.323Z,39
2017-02-23T14:10:05.877Z,39.2
2017-02-23T14:12:05.223Z,38.8
2017-02-23T14:14:11.001Z,38.7
2017-02-23T14:16:08.409Z,38.7
2017-02-23T14:18:05.404Z,38.7
2017-02-23T14:20:05.476Z,39.1
2017-02-23T14:22:05.300Z,39.3
2017-02-23T14:24:05.076Z,38.8
2017-02-23T14:26:05.890Z,38.8
2017-02-23T14:28:05.911Z,39.5
2017-02-23T14:30:05.642Z,39.1
2017-02-23T14:32:05.390Z,39.7
2017-02-23T14:34:07.755Z,39.7
2017-02-23T14:36:06.291Z,39.7
2017-02-23T14:38:05.588Z,39.7
2017-02-23T14:40:05.814Z,39.3
2017-02-23T14:42:05.557Z,39.8
2017-02-23T14:44:05.365Z,39.4
2017-02-23T14:46:06.131Z,39.5
2017-02-23T14:48:08.433Z,39.1
2017-02-23T14:50:10.429Z,39
2017-02-23T14:52:05.531Z,39
2017-02-23T14:54:05.291Z,39.1
2017-02-23T14:56:07.556Z,39.1
2017-02-23T14:58:05.592Z,38.8
2017-02-23T15:00:06.716Z,38.9
2017-02-23T15:02:05.419Z,38.9
2017-02-23T15:04:06.812Z,39.1
2017-02-23T15:06:10.710Z,38.9
2017-02-23T15:08:05.615Z,38.9
2017-02-23T15:10:06.184Z,39.2
2017-02-23T15:12:05.536Z,38.9
2017-02-23T15:14:05.239Z,38.8
2017-02-23T15:16:08.656Z,38.8
2017-02-23T15:18:05.650Z,38.8
2017-02-23T15:20:05.390Z,38.7
2017-02-23T15:22:10.341Z,38.8
2017-02-23T15:24:05.195Z,38.8
2017-02-23T15:26:05.904Z,38.9
2017-02-23T15:28:05.324Z,38.7
2017-02-23T15:30:07.622Z,38.9
2017-02-23T15:32:05.941Z,38.9
2017-02-23T15:34:08.583Z,37.9
2017-02-23T15:36:06.328Z,37.9
2017-02-23T15:38:05.095Z,38.1
2017-02-23T15:40:08.479Z,37.9
2017-02-23T15:42:07.744Z,37.9
2017-02-23T15:44:10.605Z,37.7
2017-02-23T15:46:08.253Z,37.5
2017-02-23T15:48:11.095Z,37
2017-02-23T15:50:05.341Z,37
2017-02-23T15:52:05.858Z,36.9
2017-02-23T15:54:05.586Z,36.9
2017-02-23T15:56:06.325Z,36.7
2017-02-23T15:58:05.162Z,37
2017-02-23T16:00:08.429Z,35.7
2017-02-23T16:02:05.219Z,36
2017-02-23T16:04:06.081Z,36.1
2017-02-23T16:06:05.908Z,36.2
2017-02-23T16:08:05.630Z,36.1
2017-02-23T16:10:06.195Z,35.6
2017-02-23T16:12:08.313Z,35.8
2017-02-23T16:14:04.997Z,35.8
2017-02-23T16:16:07.236Z,36
2017-02-23T16:18:05.900Z,36.4
2017-02-23T16:20:05.705Z,36.6
2017-02-23T16:22:09.076Z,37.3
2017-02-23T16:24:05.880Z,37.3
2017-02-23T16:26:05.015Z,37.3
2017-02-23T16:28:06.088Z,37.3
2017-02-23T16:30:08.074Z,37.3
2017-02-23T16:32:11.106Z,38
2017-02-23T16:34:12.340Z,38
2017-02-23T16:36:06.934Z,37.9
2017-02-23T16:38:09.511Z,37.8
2017-02-23T16:40:07.243Z,38.6
2017-02-23T16:42:05.869Z,38.8
2017-02-23T16:44:08.505Z,38.8
2017-02-23T16:46:09.047Z,38.6
2017-02-23T16:48:05.892Z,38.6
2017-02-23T16:50:07.695Z,38.8
2017-02-23T16:52:05.652Z,38.8
2017-02-23T16:54:08.791Z,38.9
2017-02-23T16:56:08.228Z,38.8
2017-02-23T16:58:16.084Z,39
2017-02-23T17:00:05.432Z,39
2017-02-23T17:02:07.676Z,39.3
2017-02-23T17:04:08.244Z,38.9
2017-02-23T17:06:06.027Z,38.9
2017-02-23T17:08:05.758Z,39.4
2017-02-23T17:10:05.591Z,39.3
2017-02-23T17:12:05.345Z,39.3
2017-02-23T17:14:05.120Z,39.5
2017-02-23T17:16:05.605Z,39.3
2017-02-23T17:18:05.780Z,39.2
2017-02-23T17:20:05.448Z,39.6
2017-02-23T17:22:05.334Z,39.4
2017-02-23T17:24:05.074Z,39.7
2017-02-23T17:26:05.329Z,39.9
2017-02-23T17:28:05.897Z,40
2017-02-23T17:30:10.647Z,40
2017-02-23T17:32:06.127Z,40
2017-02-23T17:34:11.049Z,40.3
2017-02-23T17:36:06.086Z,40.3
2017-02-23T17:38:07.074Z,40
2017-02-23T17:40:05.942Z,40.6
2017-02-23T17:42:05.659Z,41.1
2017-02-23T17:44:07.970Z,42.4
2017-02-23T17:46:05.390Z,42.4
2017-02-23T17:48:07.777Z,42.2
2017-02-23T17:50:10.576Z,42.4
2017-02-23T17:52:11.150Z,42.7
2017-02-23T17:54:05.887Z,42.7
2017-02-23T17:56:07.912Z,42.8
2017-02-23T17:58:08.089Z,42.9
2017-02-23T18:00:05.870Z,43
2017-02-23T18:02:05.457Z,42.9
2017-02-23T18:04:05.986Z,43.3
2017-02-23T18:06:05.743Z,42.9
2017-02-23T18:08:05.740Z,43.1
2017-02-23T18:10:10.175Z,43
2017-02-23T18:12:05.035Z,43.1
2017-02-23T18:14:05.331Z,43.1
2017-02-23T18:16:05.218Z,43
2017-02-23T18:18:05.202Z,43.1
2017-02-23T18:20:05.843Z,43
2017-02-23T18:22:05.871Z,42.9
2017-02-23T18:24:08.132Z,42.9
2017-02-23T18:26:05.390Z,42.9
2017-02-23T18:28:10.340Z,42.9
2017-02-23T18:30:05.610Z,42.9
2017-02-23T18:32:05.357Z,42.9
2017-02-23T18:34:05.467Z,42.9
2017-02-23T18:36:05.924Z,42.9
2017-02-23T18:38:05.642Z,42.7
2017-02-23T18:40:06.330Z,42.7
2017-02-23T18:42:05.096Z,41.5
2017-02-23T18:44:05.830Z,40.4
2017-02-23T18:46:05.937Z,39.5
2017-02-23T18:48:05.967Z,38.9
2017-02-23T18:50:05.763Z,38.8
2017-02-23T18:52:10.943Z,38.2
2017-02-23T18:54:05.493Z,37.9
2017-02-23T18:56:06.128Z,38
2017-02-23T18:58:10.485Z,39.4
2017-02-23T19:00:05.227Z,39.4
2017-02-23T19:02:05.996Z,39.6
2017-02-23T19:04:06.086Z,40
2017-02-23T19:06:08.389Z,39.5
2017-02-23T19:08:10.427Z,39.5
2017-02-23T19:10:08.559Z,39.6
2017-02-23T19:12:10.463Z,39.5
2017-02-23T19:14:06.166Z,39.5
2017-02-23T19:16:09.820Z,39.6
2017-02-23T19:18:05.470Z,39.6
2017-02-23T19:20:07.767Z,39.6
2017-02-23T19:22:06.788Z,39.6
2017-02-23T19:24:05.986Z,39.5
2017-02-23T19:26:05.760Z,39.4
2017-02-23T19:28:08.430Z,39.5
2017-02-23T19:30:05.371Z,39.4
2017-02-23T19:32:05.117Z,39.5
2017-02-23T19:34:06.967Z,39.3
2017-02-23T19:36:05.255Z,39.5
2017-02-23T19:38:05.981Z,39.3
2017-02-23T19:40:11.076Z,39.3
2017-02-23T19:42:05.784Z,39.1
2017-02-23T19:44:08.020Z,39.2
2017-02-23T19:46:08.532Z,39.3
2017-02-23T19:48:05.298Z,39.2
2017-02-23T19:50:05.110Z,39.3
2017-02-23T19:52:06.221Z,39.2
2017-02-23T19:54:05.980Z,39
2017-02-23T19:56:05.900Z,38.9
2017-02-23T19:58:06.143Z,39.1
2017-02-23T20:00:06.043Z,38.9
2017-02-23T20:02:08.081Z,39
2017-02-23T20:04:05.345Z,39
2017-02-23T20:06:07.665Z,39
2017-02-23T20:08:05.391Z,39.1
2017-02-23T20:10:07.774Z,39
2017-02-23T20:12:05.888Z,39
2017-02-23T20:14:05.236Z,39
2017-02-23T20:16:05.658Z,39
2017-02-23T20:18:07.697Z,39.3
2017-02-23T20:20:05.393Z,39.3
2017-02-23T20:22:05.472Z,39
2017-02-23T20:24:05.245Z,39.1
2017-02-23T20:26:06.223Z,39.1
2017-02-23T20:28:05.603Z,39.1
2017-02-23T20:30:05.309Z,39.2
2017-02-23T20:32:05.600Z,39.1
2017-02-23T20:34:05.561Z,39.1
2017-02-23T20:36:05.278Z,39
2017-02-23T20:38:08.029Z,38.8
2017-02-23T20:40:05.936Z,39.1
2017-02-23T20:42:05.706Z,38.9
2017-02-23T20:44:08.865Z,38.8
2017-02-23T20:46:05.730Z,38.8
2017-02-23T20:48:05.456Z,38.8
2017-02-23T20:50:05.428Z,38.8
2017-02-23T20:52:05.377Z,38.9
2017-02-23T20:54:15.335Z,39.1
2017-02-23T20:56:06.387Z,38.9
2017-02-23T20:58:06.480Z,39
2017-02-23T21:00:05.395Z,39.3
2017-02-23T21:02:10.247Z,39
2017-02-23T21:04:07.932Z,39
2017-02-23T21:06:06.711Z,38.9
2017-02-23T21:08:05.723Z,39
2017-02-23T21:10:06.092Z,39
2017-02-23T21:12:05.862Z,39.1
2017-02-23T21:14:06.043Z,39
2017-02-23T21:16:13.831Z,39.1
2017-02-23T21:18:05.485Z,39.1
2017-02-23T21:20:05.610Z,39.1
2017-02-23T21:22:08.200Z,39.2
2017-02-23T21:24:05.675Z,39.2
2017-02-23T21:26:05.514Z,39.1
2017-02-23T21:28:05.553Z,39.1
2017-02-23T21:30:07.800Z,39
2017-02-23T21:32:06.383Z,39
2017-02-23T21:34:05.449Z,39.1
2017-02-23T21:36:05.740Z,39.1
2017-02-23T21:38:05.447Z,39.1
2017-02-23T21:40:05.525Z,39.1
2017-02-23T21:42:05.290Z,39.1
2017-02-23T21:44:05.983Z,39.2
2017-02-23T21:46:05.986Z,39.1
2017-02-23T21:48:10.739Z,39.4
2017-02-23T21:50:05.024Z,39.2
2017-02-23T21:52:08.442Z,39
2017-02-23T21:54:07.729Z,38.6
2017-02-23T21:56:05.499Z,38.8
2017-02-23T21:58:05.885Z,38.4
2017-02-23T22:00:10.885Z,38.2
2017-02-23T22:02:05.941Z,38.1
2017-02-23T22:04:06.224Z,38
2017-02-23T22:06:05.947Z,37.6
2017-02-23T22:08:05.670Z,37.6
2017-02-23T22:10:08.037Z,37.3
2017-02-23T22:12:05.833Z,37.3
2017-02-23T22:14:08.328Z,37.3
2017-02-23T22:16:05.177Z,37.3
2017-02-23T22:18:07.668Z,37
2017-02-23T22:20:06.438Z,37
2017-02-23T22:22:05.493Z,36.8
2017-02-23T22:24:05.838Z,36.9
2017-02-23T22:26:08.297Z,36.6
2017-02-23T22:28:06.281Z,36.6
2017-02-23T22:30:05.073Z,36.4
2017-02-23T22:32:09.388Z,36
2017-02-23T22:34:05.429Z,36
2017-02-23T22:36:08.011Z,35.8
2017-02-23T22:38:08.315Z,35.6
2017-02-23T22:40:05.988Z,35.7
2017-02-23T22:42:13.237Z,35.3
2017-02-23T22:44:06.003Z,35.3
2017-02-23T22:46:09.078Z,35.1
2017-02-23T22:48:05.893Z,35.1
2017-02-23T22:50:08.220Z,35.1
2017-02-23T22:52:06.281Z,34.9
2017-02-23T22:54:05.982Z,35.1
2017-02-23T22:56:05.669Z,34.8
2017-02-23T22:58:05.701Z,34.9
2017-02-23T23:00:11.340Z,34.7
2017-02-23T23:02:05.431Z,34.7
2017-02-23T23:04:06.014Z,34.8
2017-02-23T23:06:10.339Z,34.6
2017-02-23T23:08:06.199Z,34.7
2017-02-23T23:10:06.497Z,34.7
2017-02-23T23:12:06.512Z,34.4
2017-02-23T23:14:05.310Z,34.6
2017-02-23T23:16:05.228Z,34.5
2017-02-23T23:18:05.171Z,34.4
2017-02-23T23:20:08.462Z,34.3
2017-02-23T23:22:05.852Z,34.1
2017-02-23T23:24:05.750Z,34.1
2017-02-23T23:26:05.468Z,34.1
2017-02-23T23:28:05.680Z,34.3
2017-02-23T23:30:05.396Z,34.2
2017-02-23T23:32:05.135Z,34.2
2017-02-23T23:34:06.591Z,34.4
2017-02-23T23:36:05.317Z,34
2017-02-23T23:38:07.557Z,34
2017-02-23T23:40:05.430Z,34
2017-02-23T23:42:05.212Z,33.9
2017-02-23T23:44:05.962Z,33.8
2017-02-23T23:46:11.123Z,33.9
2017-02-23T23:48:07.891Z,33.9
2017-02-23T23:50:05.656Z,33.7
2017-02-23T23:52:08.268Z,33.5
2017-02-23T23:54:05.985Z,33.5
2017-02-23T23:56:05.973Z,33.4
2017-02-23T23:58:05.859Z,33.4
